Time;durP1;ratioP1;P1;durP2;ratioP2;P2;SDS_P1;SDS_P2;PMS_P1;PMS_P2;Temp;Humidity;BMP_temperature;BMP_pressure;BME280_temperature;BME280_humidity;BME280_pressure;Samples;Min_cycle;Max_cycle;Signal;HPM_P1;HPM_P2
2022/05/13 00:01:14;;;;;;;9.05;5.68;;;16.70;99.90;;;;;;4946423;29;20059;-90
2022/05/13 00:03:42;;;;;;;7.03;5.13;;;16.70;99.90;;;;;;4944220;29;20044;-90
2022/05/13 00:06:10;;;;;;;6.63;4.40;;;16.70;99.90;;;;;;4943681;29;20051;-91
2022/05/13 00:08:39;;;;;;;7.35;4.90;;;16.80;99.90;;;;;;4944273;29;20044;-91
2022/05/13 00:11:09;;;;;;;7.88;5.47;;;16.90;99.90;;;;;;4944443;29;20056;-91
2022/05/13 00:13:37;;;;;;;9.25;6.05;;;16.90;99.90;;;;;;4945221;29;20067;-91
2022/05/13 00:16:06;;;;;;;7.22;5.05;;;16.90;99.90;;;;;;4930000;29;20177;-91
2022/05/13 00:18:35;;;;;;;8.23;5.40;;;16.90;99.90;;;;;;4962512;28;20083;-92
2022/05/13 00:21:04;;;;;;;6.90;5.50;;;16.90;99.90;;;;;;4945429;29;20083;-91
2022/05/13 00:23:32;;;;;;;7.97;5.60;;;17.00;99.90;;;;;;4945850;29;20482;-92
2022/05/13 00:26:01;;;;;;;7.35;5.50;;;16.90;99.90;;;;;;4942689;29;20061;-92
2022/05/13 00:28:29;;;;;;;7.50;5.30;;;16.90;99.90;;;;;;4927078;29;20391;-92
2022/05/13 00:30:59;;;;;;;7.10;5.43;;;16.80;99.90;;;;;;4946021;29;20059;-92
2022/05/13 00:33:27;;;;;;;7.88;5.68;;;16.80;99.90;;;;;;4914846;29;20154;-90
2022/05/13 00:35:55;;;;;;;8.30;5.75;;;16.80;99.90;;;;;;4961464;29;20051;-92
2022/05/13 00:41:07;;;;;;;8.05;4.93;;;16.90;99.90;;;;;;4943455;29;20410;-91
2022/05/13 00:46:39;;;;;;;6.55;5.13;;;17.00;99.90;;;;;;4946077;29;20401;-92
2022/05/13 00:49:26;;;;;;;7.80;5.70;;;16.80;99.90;;;;;;4931370;29;20110;-91
2022/05/13 00:52:00;;;;;;;8.80;5.38;;;16.70;99.90;;;;;;4945965;29;20055;-92
2022/05/13 00:54:33;;;;;;;6.60;4.93;;;16.80;99.90;;;;;;4941843;29;20047;-92
2022/05/13 00:57:03;;;;;;;8.27;5.18;;;16.80;99.90;;;;;;4942535;29;20048;-89
2022/05/13 00:59:40;;;;;;;6.45;4.60;;;17.00;99.90;;;;;;4941489;29;20052;-91
2022/05/13 01:02:11;;;;;;;6.15;4.55;;;17.00;99.90;;;;;;4942133;29;20059;-91
2022/05/13 01:04:40;;;;;;;6.72;4.90;;;16.90;99.90;;;;;;4944338;29;20504;-92
2022/05/13 01:07:15;;;;;;;7.55;4.90;;;16.90;99.90;;;;;;4944742;29;20051;-92
2022/05/13 01:09:49;;;;;;;6.32;4.80;;;17.10;99.90;;;;;;4943239;29;20051;-92
2022/05/13 01:12:24;;;;;;;7.32;4.88;;;16.90;99.90;;;;;;4944289;29;20063;-92
2022/05/13 01:14:58;;;;;;;5.72;4.35;;;16.90;99.90;;;;;;4944202;29;20048;-92
2022/05/13 01:20:19;;;;;;;7.10;5.25;;;16.80;99.90;;;;;;4924240;29;20062;-89
2022/05/13 01:22:51;;;;;;;6.93;4.80;;;16.70;99.90;;;;;;4922573;29;20134;-91
2022/05/13 01:25:36;;;;;;;6.85;5.07;;;16.70;99.90;;;;;;4922338;29;20052;-93
2022/05/13 01:28:12;;;;;;;7.93;5.15;;;16.70;99.90;;;;;;4923493;29;20411;-93
2022/05/13 01:30:44;;;;;;;8.00;4.93;;;16.80;99.90;;;;;;4906241;29;20080;-91
2022/05/13 01:33:13;;;;;;;6.95;4.85;;;16.70;99.90;;;;;;4903191;29;20081;-92
2022/05/13 01:35:43;;;;;;;6.85;5.18;;;16.70;99.90;;;;;;4903265;29;20073;-91
2022/05/13 01:38:17;;;;;;;6.80;4.65;;;16.80;99.90;;;;;;4887451;29;20053;-91
2022/05/13 01:40:45;;;;;;;6.82;4.97;;;16.80;99.90;;;;;;4904054;29;20464;-91
2022/05/13 01:43:12;;;;;;;7.45;4.80;;;16.90;99.90;;;;;;4903768;29;20556;-91
2022/05/13 01:45:40;;;;;;;6.22;4.60;;;16.90;99.90;;;;;;4903234;29;20057;-90
2022/05/13 01:48:10;;;;;;;6.75;4.68;;;16.90;99.90;;;;;;4912067;29;20048;-91
2022/05/13 01:50:39;;;;;;;7.15;4.25;;;17.00;99.90;;;;;;4922686;29;20055;-91
2022/05/13 01:53:08;;;;;;;6.82;4.40;;;16.90;99.90;;;;;;4922373;29;20048;-91
2022/05/13 01:55:42;;;;;;;6.90;4.55;;;16.70;99.90;;;;;;4922403;29;20137;-93
2022/05/13 01:58:12;;;;;;;7.25;4.60;;;16.70;99.90;;;;;;4922712;29;20193;-90
2022/05/13 02:00:41;;;;;;;6.78;4.50;;;16.70;99.90;;;;;;4931278;29;20052;-93
2022/05/13 02:05:55;;;;;;;7.07;5.43;;;16.70;99.90;;;;;;4929356;29;20063;-93
2022/05/13 02:08:23;;;;;;;10.52;6.70;;;16.60;99.90;;;;;;4922514;29;20048;-91
2022/05/13 02:10:53;;;;;;;10.05;6.70;;;16.60;99.90;;;;;;4921289;29;20051;-92
2022/05/13 02:13:21;;;;;;;7.95;5.53;;;16.60;99.90;;;;;;4933798;29;20052;-90
2022/05/13 02:15:50;;;;;;;7.50;5.47;;;16.60;99.90;;;;;;4927739;29;20060;-92
2022/05/13 02:18:22;;;;;;;7.15;5.30;;;16.70;99.90;;;;;;4906341;29;20415;-92
2022/05/13 02:20:50;;;;;;;7.45;5.50;;;16.80;99.90;;;;;;4921789;29;20066;-91
2022/05/13 02:23:21;;;;;;;7.63;5.63;;;16.90;99.90;;;;;;4921159;29;20510;-90
2022/05/13 02:25:49;;;;;;;7.70;6.20;;;16.80;99.90;;;;;;4905126;29;20469;-91
2022/05/13 02:28:19;;;;;;;9.23;6.60;;;16.60;99.90;;;;;;4922217;29;20127;-91
2022/05/13 02:30:47;;;;;;;7.93;5.80;;;16.50;99.90;;;;;;4940643;29;20056;-91
2022/05/13 02:33:15;;;;;;;7.43;6.05;;;16.50;99.90;;;;;;4946970;29;20083;-91
2022/05/13 02:35:44;;;;;;;8.27;6.10;;;16.70;99.90;;;;;;4949171;29;20047;-92
2022/05/13 02:38:15;;;;;;;6.82;5.40;;;16.70;99.90;;;;;;4949032;29;20063;-89
2022/05/13 02:43:31;;;;;;;9.75;6.45;;;16.90;99.90;;;;;;4944619;29;20142;-89
2022/05/13 02:45:59;;;;;;;8.15;6.18;;;16.80;99.90;;;;;;4949138;29;20048;-90
2022/05/13 02:48:29;;;;;;;9.52;6.53;;;16.70;99.90;;;;;;4948161;29;20075;-92
2022/05/13 02:50:57;;;;;;;7.90;5.88;;;16.60;99.90;;;;;;4947847;29;20518;-92
2022/05/13 02:53:26;;;;;;;8.10;5.93;;;16.60;99.90;;;;;;4947824;29;20044;-92
2022/05/13 02:55:54;;;;;;;8.60;5.95;;;16.70;99.90;;;;;;4930421;29;20055;-91
2022/05/13 02:58:21;;;;;;;8.25;5.90;;;16.70;99.90;;;;;;4914634;29;20521;-91
2022/05/13 03:00:50;;;;;;;9.90;6.20;;;16.70;99.90;;;;;;4930164;29;20111;-92
2022/05/13 03:03:18;;;;;;;9.02;6.22;;;16.80;99.90;;;;;;4931937;29;20064;-91
2022/05/13 03:05:45;;;;;;;8.15;5.97;;;16.90;99.90;;;;;;4945269;29;20055;-91
2022/05/13 03:08:16;;;;;;;9.70;6.95;;;16.90;99.90;;;;;;4946041;29;20095;-92
2022/05/13 03:10:44;;;;;;;8.18;6.43;;;16.80;99.90;;;;;;4913941;29;20059;-91
2022/05/13 03:13:14;;;;;;;8.98;6.63;;;16.70;99.90;;;;;;4927626;29;20052;-91
2022/05/13 03:15:41;;;;;;;8.10;6.13;;;16.70;99.90;;;;;;4911784;29;20087;-90
2022/05/13 03:18:11;;;;;;;7.70;5.90;;;16.80;99.90;;;;;;4927302;29;20052;-91
2022/05/13 03:20:41;;;;;;;10.00;6.10;;;16.90;99.90;;;;;;4914303;29;20077;-90
2022/05/13 03:23:09;;;;;;;9.90;5.95;;;16.80;99.90;;;;;;4951845;29;20066;-92
2022/05/13 03:25:37;;;;;;;7.13;5.65;;;16.90;99.90;;;;;;4947147;29;20514;-89
2022/05/13 03:28:05;;;;;;;8.02;5.85;;;16.90;99.90;;;;;;4927931;29;20122;-90
2022/05/13 03:30:33;;;;;;;8.05;6.10;;;16.90;99.90;;;;;;4928850;29;20103;-90
2022/05/13 03:33:00;;;;;;;8.60;5.80;;;17.00;99.90;;;;;;4928585;29;20052;-89
2022/05/13 03:35:44;;;;;;;7.68;6.00;;;16.90;99.90;;;;;;4928569;29;20055;-93
2022/05/13 03:38:11;;;;;;;9.32;6.07;;;16.90;99.90;;;;;;4921330;29;20056;-90
2022/05/13 03:40:39;;;;;;;8.27;5.38;;;16.70;99.90;;;;;;4923177;29;20078;-90
2022/05/13 03:43:07;;;;;;;7.25;5.10;;;16.80;99.90;;;;;;4924375;29;20048;-89
2022/05/13 03:45:36;;;;;;;7.80;5.75;;;16.90;99.90;;;;;;4939840;29;20108;-90
2022/05/13 03:48:06;;;;;;;7.63;5.63;;;16.90;99.90;;;;;;4906478;29;20055;-91
2022/05/13 03:50:38;;;;;;;7.15;5.70;;;17.00;99.90;;;;;;4924476;29;20086;-90
2022/05/13 03:53:06;;;;;;;9.05;5.90;;;17.00;99.90;;;;;;4924909;29;20056;-90
2022/05/13 03:55:35;;;;;;;8.10;5.47;;;17.00;99.90;;;;;;4922486;29;20599;-87
2022/05/13 03:58:03;;;;;;;9.98;5.65;;;16.90;99.90;;;;;;4923030;29;20056;-87
2022/05/13 04:00:31;;;;;;;7.22;5.57;;;16.80;99.90;;;;;;4929241;29;20060;-88
2022/05/13 04:02:59;;;;;;;7.13;5.38;;;16.80;99.90;;;;;;4904361;29;20127;-89
2022/05/13 04:10:58;;;;;;;8.68;5.57;;;16.40;99.90;;;;;;4904540;29;20099;-89
2022/05/13 04:16:10;;;;;;;7.00;5.30;;;16.50;99.90;;;;;;4906099;29;20063;-91
2022/05/13 04:18:40;;;;;;;7.57;5.53;;;16.60;99.90;;;;;;4906316;29;20499;-91
2022/05/13 04:21:12;;;;;;;7.88;5.75;;;16.80;99.90;;;;;;4904049;29;20057;-89
2022/05/13 04:23:44;;;;;;;8.07;5.70;;;16.70;99.90;;;;;;4903255;29;20055;-90
2022/05/13 04:26:13;;;;;;;8.02;5.30;;;16.90;99.90;;;;;;4888519;29;20184;-90
2022/05/13 04:28:41;;;;;;;6.70;5.45;;;16.90;99.90;;;;;;4906664;29;20053;-90
2022/05/13 04:31:09;;;;;;;7.63;5.88;;;16.90;99.90;;;;;;4907067;29;20088;-91
2022/05/13 04:33:37;;;;;;;7.25;5.75;;;16.80;99.90;;;;;;4923458;29;20076;-91
2022/05/13 04:36:05;;;;;;;6.40;5.30;;;16.90;99.90;;;;;;4906498;29;20048;-88
2022/05/13 04:38:33;;;;;;;6.50;5.18;;;16.90;99.90;;;;;;4922549;29;20087;-90
2022/05/13 04:43:44;;;;;;;7.35;5.30;;;17.00;99.90;;;;;;4922205;29;20062;-90
2022/05/13 04:46:12;;;;;;;6.28;4.85;;;17.00;99.90;;;;;;4923179;29;20079;-91
2022/05/13 04:48:39;;;;;;;6.97;5.35;;;17.00;99.90;;;;;;4906237;29;20099;-88
2022/05/13 04:51:06;;;;;;;7.00;5.20;;;17.00;99.90;;;;;;4922371;29;20044;-89
2022/05/13 04:53:36;;;;;;;7.00;5.25;;;17.00;99.90;;;;;;4921649;29;20071;-90
2022/05/13 04:56:09;;;;;;;6.47;4.90;;;17.00;99.90;;;;;;4924210;29;20072;-90
2022/05/13 04:58:38;;;;;;;7.00;5.28;;;16.90;99.90;;;;;;4923098;29;20082;-90
2022/05/13 05:01:08;;;;;;;7.57;5.00;;;16.90;99.90;;;;;;4922084;29;20582;-90
2022/05/13 05:03:36;;;;;;;6.30;5.10;;;16.90;99.90;;;;;;4905902;29;20052;-92
2022/05/13 05:06:06;;;;;;;6.32;5.18;;;16.90;99.90;;;;;;4906895;29;20060;-89
2022/05/13 05:08:33;;;;;;;6.22;4.88;;;17.00;99.90;;;;;;4907254;29;20550;-90
2022/05/13 05:11:02;;;;;;;6.78;5.30;;;16.90;99.90;;;;;;4923633;29;20079;-91
2022/05/13 05:13:34;;;;;;;7.32;5.18;;;16.80;99.90;;;;;;4930867;29;20052;-90
2022/05/13 05:16:05;;;;;;;7.57;5.25;;;16.70;99.90;;;;;;4932079;29;20055;-94
2022/05/13 05:18:32;;;;;;;6.68;5.07;;;16.80;99.90;;;;;;4932270;29;20082;-91
2022/05/13 05:21:00;;;;;;;6.93;4.93;;;16.90;99.90;;;;;;4932860;29;20484;-93
2022/05/13 05:23:31;;;;;;;7.35;5.30;;;17.00;99.90;;;;;;4934073;29;20082;-93
2022/05/13 05:26:00;;;;;;;7.00;4.82;;;17.00;99.90;;;;;;4932509;29;20079;-92
2022/05/13 05:28:31;;;;;;;7.75;5.30;;;17.00;99.90;;;;;;4910800;29;20054;-88
2022/05/13 05:31:00;;;;;;;7.25;5.75;;;17.00;99.90;;;;;;4920870;29;20139;-87
2022/05/13 05:33:28;;;;;;;7.03;5.80;;;17.00;99.90;;;;;;4921079;29;20055;-87
2022/05/13 05:35:55;;;;;;;7.72;5.63;;;17.00;99.90;;;;;;4920141;29;20459;-87
2022/05/13 05:38:23;;;;;;;7.47;5.75;;;17.10;99.90;;;;;;4928037;29;20091;-89
2022/05/13 05:40:50;;;;;;;7.43;5.55;;;17.10;99.90;;;;;;4939925;29;20111;-86
2022/05/13 05:43:19;;;;;;;8.05;5.97;;;17.00;99.90;;;;;;4941451;29;20482;-89
2022/05/13 05:45:47;;;;;;;10.05;7.25;;;16.90;99.90;;;;;;4923403;29;20055;-88
2022/05/13 05:48:21;;;;;;;7.82;6.20;;;16.70;99.90;;;;;;4939021;29;20139;-89
2022/05/13 05:50:50;;;;;;;7.80;6.53;;;16.70;99.90;;;;;;4923819;29;20051;-86
2022/05/13 05:57:13;;;;;;;7.75;6.03;;;16.70;99.90;;;;;;4934273;29;20578;-87
2022/05/13 05:58:53;;;;;;;10.82;7.30;;;16.80;99.90;;;;;;4935356;29;20175;-88
2022/05/13 06:01:22;;;;;;;8.15;6.13;;;16.70;99.90;;;;;;4937087;29;20052;-90
2022/05/13 06:03:49;;;;;;;9.73;6.75;;;16.90;99.90;;;;;;4905402;29;20487;-88
2022/05/13 06:06:17;;;;;;;9.20;7.88;;;16.90;99.90;;;;;;4935077;29;20139;-86
2022/05/13 06:08:44;;;;;;;8.48;6.63;;;16.80;99.90;;;;;;4939578;29;20127;-87
2022/05/13 06:11:11;;;;;;;10.48;7.40;;;16.80;99.90;;;;;;4927777;29;20130;-87
2022/05/13 06:13:39;;;;;;;9.50;7.63;;;16.80;99.90;;;;;;4944707;29;20047;-87
2022/05/13 06:16:08;;;;;;;10.60;7.93;;;16.70;99.90;;;;;;4946079;29;20138;-89
2022/05/13 06:18:38;;;;;;;10.02;8.20;;;16.70;99.90;;;;;;4947295;29;20051;-89
2022/05/13 06:21:06;;;;;;;9.68;7.05;;;16.70;99.90;;;;;;4946992;29;20134;-89
2022/05/13 06:23:33;;;;;;;8.50;6.60;;;16.70;99.90;;;;;;4945312;29;20138;-86
2022/05/13 06:26:00;;;;;;;9.40;6.80;;;16.70;99.90;;;;;;4945031;29;20086;-85
2022/05/13 06:28:30;;;;;;;9.90;8.07;;;16.60;99.90;;;;;;4945863;29;20044;-91
2022/05/13 06:30:57;;;;;;;9.25;5.97;;;16.40;99.90;;;;;;4928427;29;20055;-90
2022/05/13 06:33:25;;;;;;;8.27;4.07;;;16.30;99.90;;;;;;4946297;29;20090;-90
2022/05/13 06:35:54;;;;;;;7.80;4.07;;;16.20;99.90;;;;;;4947330;29;20111;-91
2022/05/13 06:38:25;;;;;;;6.30;3.50;;;16.20;99.90;;;;;;4944353;29;20501;-90
2022/05/13 06:40:55;;;;;;;5.97;3.58;;;16.10;99.90;;;;;;4942392;29;20056;-90
2022/05/13 06:43:24;;;;;;;7.07;3.30;;;16.30;99.90;;;;;;4929724;29;20496;-90
2022/05/13 06:45:52;;;;;;;6.82;3.35;;;16.40;99.90;;;;;;4929762;29;20131;-87
2022/05/13 06:48:20;;;;;;;6.30;3.30;;;16.40;99.90;;;;;;4948321;29;20072;-89
2022/05/13 06:50:48;;;;;;;5.57;3.42;;;16.50;99.90;;;;;;4948534;29;20082;-88
2022/05/13 06:53:19;;;;;;;7.10;3.70;;;16.50;99.90;;;;;;4941898;29;20145;-87
2022/05/13 06:55:46;;;;;;;6.38;3.80;;;16.40;99.90;;;;;;4955120;29;20466;-88
2022/05/13 06:58:15;;;;;;;6.38;3.50;;;16.50;99.90;;;;;;4948208;29;20144;-89
2022/05/13 07:00:43;;;;;;;7.18;3.85;;;16.60;99.90;;;;;;4951855;29;20103;-89
2022/05/13 07:03:13;;;;;;;6.15;3.40;;;16.70;99.90;;;;;;4952305;29;20100;-89
2022/05/13 07:05:41;;;;;;;6.07;3.40;;;16.60;99.90;;;;;;4915374;29;20059;-91
2022/05/13 07:08:10;;;;;;;5.82;3.38;;;16.70;99.90;;;;;;4915358;29;20044;-86
2022/05/13 07:10:40;;;;;;;6.75;3.60;;;16.80;99.90;;;;;;4945292;29;20102;-83
2022/05/13 07:13:08;;;;;;;6.15;3.65;;;16.70;99.90;;;;;;4947188;29;20075;-88
2022/05/13 07:15:36;;;;;;;5.63;3.55;;;16.80;99.90;;;;;;4947578;29;20054;-90
2022/05/13 07:18:04;;;;;;;6.53;3.88;;;16.80;99.90;;;;;;4932539;29;20080;-93
2022/05/13 07:20:32;;;;;;;7.65;3.50;;;16.80;99.90;;;;;;4946517;29;20134;-84
2022/05/13 07:22:59;;;;;;;5.43;3.70;;;16.80;99.90;;;;;;4938640;29;20078;-83
2022/05/13 07:25:27;;;;;;;6.60;3.40;;;16.90;99.90;;;;;;4940110;29;20521;-82
2022/05/13 07:27:55;;;;;;;4.93;3.33;;;16.90;99.90;;;;;;4940000;29;20044;-83
2022/05/13 07:30:23;;;;;;;5.60;3.10;;;16.90;99.90;;;;;;4940136;29;20059;-90
2022/05/13 07:32:51;;;;;;;6.47;3.45;;;16.80;99.90;;;;;;4943408;29;20156;-86
2022/05/13 07:35:25;;;;;;;5.57;3.15;;;16.80;99.90;;;;;;4943975;29;20471;-92
2022/05/13 07:37:53;;;;;;;;;;;16.70;99.90;;;;;;4929118;29;20059;-88
2022/05/13 07:43:07;;;;;;;5.85;3.17;;;16.50;99.90;;;;;;4941265;29;20123;-87
2022/05/13 07:45:36;;;;;;;6.68;3.42;;;16.60;99.90;;;;;;4924359;29;20103;-84
2022/05/13 07:48:04;;;;;;;6.07;2.80;;;16.60;99.90;;;;;;4942783;29;20086;-88
2022/05/13 07:50:31;;;;;;;4.75;2.55;;;16.70;99.90;;;;;;4941912;29;20749;-87
2022/05/13 07:52:59;;;;;;;6.32;3.13;;;16.70;99.90;;;;;;4943043;29;20558;-87
2022/05/13 07:55:26;;;;;;;6.20;2.70;;;16.70;99.90;;;;;;4944763;29;20079;-90
2022/05/13 07:57:54;;;;;;;5.28;2.78;;;16.80;99.90;;;;;;4928302;29;20048;-90
2022/05/13 08:00:29;;;;;;;6.47;3.20;;;16.80;99.90;;;;;;4940432;28;20446;-89
2022/05/13 08:03:00;;;;;;;8.07;3.20;;;16.70;99.90;;;;;;4939303;29;20074;-86
2022/05/13 08:05:30;;;;;;;6.47;3.03;;;16.80;99.90;;;;;;4940125;29;20047;-88
2022/05/13 08:08:05;;;;;;;5.20;2.92;;;16.70;99.90;;;;;;4922433;29;20131;-89
2022/05/13 08:10:32;;;;;;;7.38;3.20;;;16.80;99.90;;;;;;4941909;28;20142;-87
2022/05/13 08:13:00;;;;;;;6.65;3.40;;;16.70;99.90;;;;;;4941842;29;20122;-87
2022/05/13 08:15:29;;;;;;;5.47;3.15;;;16.60;99.90;;;;;;4940798;29;20055;-88
2022/05/13 08:17:56;;;;;;;7.13;2.88;;;16.60;99.90;;;;;;4952918;29;20059;-88
2022/05/13 08:20:24;;;;;;;5.18;2.60;;;16.50;99.90;;;;;;4927992;29;20084;-88
2022/05/13 08:22:52;;;;;;;7.28;2.70;;;16.50;99.90;;;;;;4938036;29;20059;-89
2022/05/13 08:25:19;;;;;;;6.45;2.80;;;16.60;99.90;;;;;;4924832;29;20052;-86
2022/05/13 08:27:47;;;;;;;5.28;2.60;;;16.60;99.90;;;;;;4958331;29;20066;-88
2022/05/13 08:30:15;;;;;;;5.38;2.92;;;16.60;99.90;;;;;;4940079;28;20485;-78
2022/05/13 08:32:45;;;;;;;6.88;3.30;;;16.60;99.90;;;;;;4934805;29;20139;-80
2022/05/13 08:35:12;;;;;;;7.63;3.50;;;16.50;99.90;;;;;;4937110;29;20048;-77
2022/05/13 08:37:44;;;;;;;7.30;3.10;;;16.50;99.90;;;;;;4941974;29;20039;-79
2022/05/13 08:40:23;;;;;;;5.75;2.80;;;16.60;99.90;;;;;;4936106;28;20135;-81
2022/05/13 08:42:51;;;;;;;5.13;2.70;;;16.60;99.90;;;;;;4955678;29;20149;-78
2022/05/13 08:45:20;;;;;;;7.10;2.67;;;16.90;99.90;;;;;;4950192;29;20164;-78
2022/05/13 08:47:55;;;;;;;6.43;2.83;;;16.90;99.90;;;;;;4938886;29;20047;-81
2022/05/13 08:50:27;;;;;;;5.07;2.70;;;16.70;99.90;;;;;;4938105;29;20075;-82
2022/05/13 08:53:11;;;;;;;7.05;3.10;;;16.70;99.90;;;;;;4956277;29;20075;-80
2022/05/13 08:55:46;;;;;;;6.35;3.10;;;16.80;99.90;;;;;;4957205;29;20054;-80
2022/05/13 08:58:18;;;;;;;7.97;3.60;;;16.80;99.90;;;;;;4956708;29;20051;-78
2022/05/13 09:00:49;;;;;;;6.68;3.40;;;16.70;99.90;;;;;;4956823;29;20055;-78
2022/05/13 09:03:35;;;;;;;7.18;4.20;;;16.70;99.90;;;;;;4941378;29;20667;-82
2022/05/13 09:06:06;;;;;;;10.93;4.30;;;16.80;99.90;;;;;;4941165;29;20068;-81
2022/05/13 09:08:34;;;;;;;6.38;3.90;;;16.80;99.90;;;;;;4951700;29;20078;-78
2022/05/13 09:11:14;;;;;;;6.78;4.20;;;16.90;99.90;;;;;;4953749;29;20494;-79
2022/05/13 09:13:53;;;;;;;8.25;4.40;;;16.80;99.90;;;;;;4918066;29;20122;-81
2022/05/13 09:16:32;;;;;;;7.00;4.13;;;16.80;99.90;;;;;;4918057;29;20076;-81
2022/05/13 09:19:04;;;;;;;8.93;3.95;;;16.90;99.90;;;;;;4950477;29;20055;-81
2022/05/13 09:21:33;;;;;;;8.50;4.57;;;16.90;99.90;;;;;;4931305;29;20116;-79
2022/05/13 09:24:00;;;;;;;7.55;4.30;;;16.90;99.90;;;;;;4936602;29;20051;-80
2022/05/13 09:26:28;;;;;;;6.57;3.80;;;17.00;99.90;;;;;;4936548;29;20139;-80
2022/05/13 09:29:08;;;;;;;8.15;4.10;;;17.00;99.90;;;;;;4936065;29;20146;-80
2022/05/13 09:31:40;;;;;;;8.38;3.85;;;17.10;99.90;;;;;;4936511;29;20051;-79
2022/05/13 09:34:29;;;;;;;8.60;3.88;;;16.90;99.90;;;;;;4938857;29;20052;-80
2022/05/13 09:37:11;;;;;;;8.77;4.35;;;17.00;99.90;;;;;;4944623;29;20143;-78
2022/05/13 09:39:43;;;;;;;12.38;6.90;;;17.00;99.90;;;;;;4917563;29;20130;-80
2022/05/13 09:42:22;;;;;;;11.23;5.72;;;17.10;99.90;;;;;;4917466;29;20048;-79
2022/05/13 09:44:51;;;;;;;7.47;3.78;;;17.10;99.90;;;;;;4919843;29;20132;-79
2022/05/13 09:47:30;;;;;;;6.95;3.72;;;17.10;99.90;;;;;;4944074;28;20062;-81
2022/05/13 09:50:02;;;;;;;7.45;3.88;;;17.20;99.90;;;;;;4944872;29;20468;-81
2022/05/13 09:52:35;;;;;;;8.40;3.78;;;17.20;99.90;;;;;;4931115;29;20087;-82
2022/05/13 09:55:15;;;;;;;12.88;4.15;;;17.20;99.90;;;;;;4933545;29;20047;-82
2022/05/13 09:57:43;;;;;;;7.15;4.00;;;17.30;99.90;;;;;;4937188;29;20071;-82
2022/05/13 10:00:17;;;;;;;7.30;3.67;;;17.30;99.90;;;;;;4954675;29;20102;-83
2022/05/13 10:02:47;;;;;;;7.28;3.47;;;17.30;99.90;;;;;;4953917;29;20122;-80
2022/05/13 10:05:23;;;;;;;7.68;3.55;;;17.40;99.90;;;;;;4955939;29;20051;-86
2022/05/13 10:08:01;;;;;;;9.60;3.80;;;17.50;99.90;;;;;;4954884;29;20079;-82
2022/05/13 10:16:10;;;;;;;8.75;3.55;;;17.70;99.90;;;;;;4936656;29;20059;-84
2022/05/13 10:18:44;;;;;;;8.45;3.20;;;17.70;99.90;;;;;;4937059;29;20143;-84
2022/05/13 10:21:18;;;;;;;6.95;3.03;;;17.70;99.90;;;;;;4936054;29;20139;-84
2022/05/13 10:23:55;;;;;;;8.57;3.40;;;18.00;99.90;;;;;;4935651;29;20052;-84
2022/05/13 10:26:26;;;;;;;8.48;3.20;;;18.00;99.90;;;;;;4935987;29;20089;-84
2022/05/13 10:29:04;;;;;;;7.03;2.95;;;18.00;99.90;;;;;;4936330;29;20467;-84
2022/05/13 10:31:36;;;;;;;8.65;3.58;;;18.00;99.90;;;;;;4919843;29;20134;-82
2022/05/13 10:34:10;;;;;;;10.27;3.13;;;18.00;99.90;;;;;;4935692;29;20139;-84
2022/05/13 10:36:43;;;;;;;9.05;3.45;;;18.30;99.90;;;;;;4918895;29;20486;-83
2022/05/13 10:39:19;;;;;;;6.80;3.20;;;18.30;99.90;;;;;;4939479;29;20087;-84
2022/05/13 10:41:49;;;;;;;5.85;2.97;;;18.20;99.90;;;;;;4938604;29;20486;-83
2022/05/13 10:44:21;;;;;;;6.88;2.55;;;18.30;99.90;;;;;;4937734;29;20147;-83
2022/05/13 10:46:54;;;;;;;7.60;3.00;;;18.50;99.90;;;;;;4918559;29;20486;-84
2022/05/13 10:49:21;;;;;;;8.35;3.08;;;18.50;99.90;;;;;;4938121;29;20082;-84
2022/05/13 10:51:58;;;;;;;6.53;2.88;;;18.50;99.90;;;;;;4937885;29;20154;-83
2022/05/13 10:54:43;;;;;;;6.10;2.70;;;18.30;99.90;;;;;;4936900;29;20552;-83
2022/05/13 10:57:25;;;;;;;6.18;2.40;;;18.30;99.90;;;;;;4938794;29;20059;-83
2022/05/13 11:00:09;;;;;;;6.13;2.83;;;18.50;99.90;;;;;;4939509;29;20082;-84
2022/05/13 11:03:22;;;;;;;8.88;2.80;;;18.30;99.90;;;;;;4939555;29;20051;-82
2022/05/13 11:06:03;;;;;;;;;;;18.40;99.90;;;;;;4934544;29;20047;-82
2022/05/13 11:08:46;;;;;;;8.45;3.53;;;18.30;99.90;;;;;;4922386;29;20009;-82
2022/05/13 11:11:37;;;;;;;21.00;11.68;;;18.30;99.90;;;;;;4940797;29;20083;-83
2022/05/13 11:14:22;;;;;;;14.65;5.20;;;18.20;99.90;;;;;;4939058;29;20135;-84
2022/05/13 11:17:05;;;;;;;9.23;3.17;;;18.10;99.90;;;;;;4939011;29;20138;-83
2022/05/13 11:19:37;;;;;;;8.00;3.20;;;18.00;99.90;;;;;;4938881;29;20139;-83
2022/05/13 11:22:11;;;;;;;8.25;2.60;;;17.90;99.90;;;;;;4938932;29;20150;-83
2022/05/13 11:28:04;;;;;;;6.72;2.60;;;18.00;99.90;;;;;;4938812;29;19933;-82
2022/05/13 11:30:42;;;;;;;6.60;2.20;;;18.10;99.90;;;;;;4938733;29;20143;-84
2022/05/13 11:33:26;;;;;;;11.77;3.50;;;18.20;99.90;;;;;;4938599;29;20128;-83
2022/05/13 11:36:09;;;;;;;7.68;2.70;;;18.30;99.90;;;;;;4921869;29;20486;-82
2022/05/13 11:38:59;;;;;;;8.05;3.30;;;18.00;99.90;;;;;;4938672;29;20450;-82
2022/05/13 11:41:40;;;;;;;8.75;2.85;;;18.00;99.90;;;;;;4938348;29;20139;-83
2022/05/13 11:44:09;;;;;;;8.95;2.80;;;18.00;99.90;;;;;;4938489;29;20142;-82
2022/05/13 11:46:51;;;;;;;8.75;3.17;;;18.10;99.90;;;;;;4921109;29;20051;-84
2022/05/13 11:49:26;;;;;;;7.38;2.60;;;18.00;99.90;;;;;;4921410;29;20047;-83
2022/05/13 11:51:54;;;;;;;6.20;2.60;;;18.10;99.90;;;;;;4937302;29;20058;-83
2022/05/13 11:54:27;;;;;;;5.90;2.47;;;18.10;99.90;;;;;;4938585;29;20114;-82
2022/05/13 11:57:28;;;;;;;8.30;2.92;;;18.10;99.90;;;;;;4938603;29;20473;-81
2022/05/13 11:59:57;;;;;;;6.63;2.60;;;18.00;99.90;;;;;;4917423;29;20487;-82
2022/05/13 12:02:51;;;;;;;7.22;2.80;;;18.00;99.90;;;;;;4934139;29;20062;-82
2022/05/13 12:05:35;;;;;;;6.90;2.60;;;18.10;99.90;;;;;;4938171;29;20402;-82
2022/05/13 12:08:22;;;;;;;6.32;2.58;;;18.40;99.90;;;;;;4937197;29;20043;-83
2022/05/13 12:11:18;;;;;;;6.28;2.70;;;18.20;99.90;;;;;;4942042;29;20079;-78
2022/05/13 12:14:01;;;;;;;6.57;2.63;;;18.20;99.90;;;;;;4954475;29;20110;-78
2022/05/13 12:16:40;;;;;;;5.32;2.60;;;18.40;99.90;;;;;;4951532;29;20111;-78
2022/05/13 12:19:35;;;;;;;8.63;3.00;;;18.40;99.90;;;;;;4955614;29;20039;-80
2022/05/13 12:22:11;;;;;;;8.40;2.97;;;18.50;99.90;;;;;;4946878;29;20051;-79
2022/05/13 12:25:01;;;;;;;6.97;2.58;;;18.60;99.90;;;;;;4935668;29;20079;-79
2022/05/13 12:27:36;;;;;;;9.60;2.95;;;18.80;99.90;;;;;;4933626;29;20410;-79
2022/05/13 12:30:11;;;;;;;;;;;18.90;99.90;;;;;;4935847;29;20075;-81
2022/05/13 12:32:45;;;;;;;;;;;19.30;99.90;;;;;;4936915;29;19945;-78
2022/05/13 12:38:17;;;;;;;;;;;19.30;99.90;;;;;;4947021;29;19961;-79
2022/05/13 12:40:55;;;;;;;;;;;19.40;99.90;;;;;;4950764;29;20352;-78
2022/05/13 12:43:25;;;;;;;;;;;19.70;99.90;;;;;;4954910;29;20040;-77
2022/05/13 12:46:14;;;;;;;;;;;20.00;99.90;;;;;;4945880;29;19927;-79
2022/05/13 12:48:56;;;;;;;;;;;19.90;99.90;;;;;;4951850;29;19922;-80
2022/05/13 12:51:23;;;;;;;;;;;20.10;99.50;;;;;;4949606;29;20285;-76
2022/05/13 12:53:51;;;;;;;;;;;20.30;98.60;;;;;;4945373;29;20431;-74
2022/05/13 12:56:31;;;;;;;;;;;20.60;98.20;;;;;;4942526;29;20010;-73
2022/05/13 12:59:04;;;;;;;;;;;20.40;97.10;;;;;;4951592;29;20013;-77
2022/05/13 13:01:33;;;;;;;;;;;20.40;97.20;;;;;;4951470;29;20016;-74
2022/05/13 13:04:01;;;;;;;;;;;20.20;97.90;;;;;;4945798;29;20947;-77
2022/05/13 13:06:39;;;;;;;;;;;20.10;97.10;;;;;;4947476;29;19982;-75
2022/05/13 13:09:07;;;;;;;;;;;19.80;98.20;;;;;;4954368;29;19922;-73
2022/05/13 13:11:43;;;;;;;;;;;20.10;98.40;;;;;;4948670;29;19977;-90
2022/05/13 13:14:14;;;;;;;;;;;20.70;97.40;;;;;;4937941;29;20017;-88
2022/05/13 13:16:47;;;;;;;;;;;21.00;96.80;;;;;;4935077;29;19966;-88
2022/05/13 13:19:18;;;;;;;;;;;21.10;96.70;;;;;;4923817;29;20379;-89
2022/05/13 13:21:45;;;;;;;;;;;21.10;95.70;;;;;;4947912;29;20439;-89
2022/05/13 13:24:15;;;;;;;;;;;20.80;96.80;;;;;;4938059;29;20005;-89
2022/05/13 13:26:46;;;;;;;;;;;20.90;97.00;;;;;;4937960;29;19958;-88
2022/05/13 13:29:22;;;;;;;;;;;21.10;96.70;;;;;;4938238;29;19929;-88
2022/05/13 13:31:52;;;;;;;;;;;20.90;96.90;;;;;;4920564;29;19923;-88
2022/05/13 13:34:26;;;;;;;;;;;21.10;95.50;;;;;;4937677;29;19930;-89
2022/05/13 13:36:55;;;;;;;;;;;21.00;94.90;;;;;;4905910;29;19933;-89
2022/05/13 13:39:22;;;;;;;;;;;20.70;95.80;;;;;;4937563;29;20385;-89
2022/05/13 13:42:08;;;;;;;;;;;20.60;96.60;;;;;;4942672;29;19990;-88
2022/05/13 13:44:36;;;;;;;;;;;20.60;97.00;;;;;;4941712;29;19926;-89
2022/05/13 13:47:06;;;;;;;;;;;20.60;97.80;;;;;;4946377;29;20304;-89
2022/05/13 13:49:35;;;;;;;;;;;20.40;98.20;;;;;;4916024;29;19934;-92
2022/05/13 13:52:05;;;;;;;;;;;20.70;97.70;;;;;;4961178;29;19937;-90
2022/05/13 13:54:37;;;;;;;;;;;21.10;95.80;;;;;;4963942;29;19933;-91
2022/05/13 13:57:21;;;;;;;;;;;21.30;96.10;;;;;;4926443;29;20353;-88
2022/05/13 13:59:57;;;;;;;;;;;21.30;96.40;;;;;;4950799;29;19937;-90
2022/05/13 14:02:36;;;;;;;;;;;21.20;96.80;;;;;;4951533;29;19951;-89